Glencoe, Oklahoma
Current Conditions -  °F | °C
As of 11:53 AM on Sunday 21 Dec 2014 (Local Time) from KSWO Reporting Station
Overcast Overcast  
Wind Chill: 42°   Ceiling: 1500
Heat Index: 49°   Visibility: 10mi
Dew Point: 41°   Wind: 21mph
Humidity: 74%   Direction: 170°S
Pressure: 29.91"   Gusts: NA
Location:  36.23°N, 96.93°W
Report Text: KSWO 211753Z 17018KT 10SM OVC015 09/05 A2991 RMK AO2 SLP129 T00940050 10094 20061 58029
Loading
Personal Weather Stations






























Interactive Weather Map New forecast layout! Learn more

10-Day Weather Forecast

Advertisements
Track Severe Weather on mobile